sensor_id;sensor_type;location;lat;lon;timestamp;P1;durP1;ratioP1;P2;durP2;ratioP2
45466;SDS011;31212;49.734;8.490;2023-08-30T05:06:51;11.75;;;4.93;;
45466;SDS011;31212;49.734;8.490;2023-08-30T05:09:17;7.63;;;4.68;;
45466;SDS011;31212;49.734;8.490;2023-08-30T05:11:44;13.70;;;4.97;;
45466;SDS011;31212;49.734;8.490;2023-08-30T05:14:10;7.28;;;4.75;;
45466;SDS011;31212;49.734;8.490;2023-08-30T05:16:39;8.48;;;4.90;;
45466;SDS011;31212;49.734;8.490;2023-08-30T05:19:05;7.93;;;4.93;;
45466;SDS011;31212;49.734;8.490;2023-08-30T05:21:32;10.55;;;5.32;;
45466;SDS011;31212;49.734;8.490;2023-08-30T05:23:59;5.75;;;3.75;;
45466;SDS011;31212;49.734;8.490;2023-08-30T05:26:27;9.27;;;4.90;;
45466;SDS011;31212;49.734;8.490;2023-08-30T05:28:54;6.15;;;4.28;;
45466;SDS011;31212;49.734;8.490;2023-08-30T05:31:22;7.90;;;5.18;;
45466;SDS011;31212;49.734;8.490;2023-08-30T05:34:12;12.65;;;4.93;;
45466;SDS011;31212;49.734;8.490;2023-08-30T05:37:02;8.90;;;4.97;;
45466;SDS011;31212;49.734;8.490;2023-08-30T05:39:48;7.32;;;4.35;;
45466;SDS011;31212;49.734;8.490;2023-08-30T05:42:15;9.13;;;3.80;;
45466;SDS011;31212;49.734;8.490;2023-08-30T05:44:41;7.63;;;4.55;;
45466;SDS011;31212;49.734;8.490;2023-08-30T05:47:08;9.52;;;5.82;;
45466;SDS011;31212;49.734;8.490;2023-08-30T05:49:39;5.90;;;3.72;;
45466;SDS011;31212;49.734;8.490;2023-08-30T05:52:06;13.07;;;4.93;;
45466;SDS011;31212;49.734;8.490;2023-08-30T05:54:32;6.25;;;4.43;;
45466;SDS011;31212;49.734;8.490;2023-08-30T05:57:02;9.82;;;4.03;;
45466;SDS011;31212;49.734;8.490;2023-08-30T05:59:30;6.07;;;4.07;;
45466;SDS011;31212;49.734;8.490;2023-08-30T06:01:57;7.35;;;4.57;;
45466;SDS011;31212;49.734;8.490;2023-08-30T06:04:23;7.20;;;4.03;;
45466;SDS011;31212;49.734;8.490;2023-08-30T06:06:49;7.25;;;4.30;;
45466;SDS011;31212;49.734;8.490;2023-08-30T06:09:16;5.03;;;3.35;;
45466;SDS011;31212;49.734;8.490;2023-08-30T06:11:43;7.10;;;4.40;;
45466;SDS011;31212;49.734;8.490;2023-08-30T06:14:10;11.10;;;4.45;;
45466;SDS011;31212;49.734;8.490;2023-08-30T06:16:37;6.13;;;3.85;;
45466;SDS011;31212;49.734;8.490;2023-08-30T06:19:03;7.60;;;4.72;;
45466;SDS011;31212;49.734;8.490;2023-08-30T06:21:30;6.80;;;3.80;;
45466;SDS011;31212;49.734;8.490;2023-08-30T06:26:27;9.43;;;4.80;;
45466;SDS011;31212;49.734;8.490;2023-08-30T06:28:54;4.47;;;3.40;;
45466;SDS011;31212;49.734;8.490;2023-08-30T06:31:21;5.70;;;3.45;;
45466;SDS011;31212;49.734;8.490;2023-08-30T06:36:15;6.00;;;3.67;;
45466;SDS011;31212;49.734;8.490;2023-08-30T06:38:42;6.80;;;3.63;;
45466;SDS011;31212;49.734;8.490;2023-08-30T06:41:09;4.63;;;3.33;;
45466;SDS011;31212;49.734;8.490;2023-08-30T06:43:35;6.03;;;3.33;;
45466;SDS011;31212;49.734;8.490;2023-08-30T06:46:01;5.75;;;3.17;;
45466;SDS011;31212;49.734;8.490;2023-08-30T06:48:29;4.40;;;2.72;;
45466;SDS011;31212;49.734;8.490;2023-08-30T06:50:56;5.18;;;3.13;;
45466;SDS011;31212;49.734;8.490;2023-08-30T06:53:23;4.10;;;3.13;;
45466;SDS011;31212;49.734;8.490;2023-08-30T06:55:56;4.78;;;3.42;;
45466;SDS011;31212;49.734;8.490;2023-08-30T07:00:48;5.97;;;3.03;;
45466;SDS011;31212;49.734;8.490;2023-08-30T07:03:15;4.75;;;2.67;;
45466;SDS011;31212;49.734;8.490;2023-08-30T07:05:42;4.97;;;3.05;;
45466;SDS011;31212;49.734;8.490;2023-08-30T07:08:09;5.80;;;2.80;;
45466;SDS011;31212;49.734;8.490;2023-08-30T07:10:35;5.68;;;2.53;;
45466;SDS011;31212;49.734;8.490;2023-08-30T07:13:02;7.00;;;2.85;;
45466;SDS011;31212;49.734;8.490;2023-08-30T07:15:29;8.40;;;2.38;;
45466;SDS011;31212;49.734;8.490;2023-08-30T07:17:56;9.93;;;2.85;;
45466;SDS011;31212;49.734;8.490;2023-08-30T07:20:22;4.80;;;2.50;;
45466;SDS011;31212;49.734;8.490;2023-08-30T07:22:50;7.32;;;3.83;;
45466;SDS011;31212;49.734;8.490;2023-08-30T07:25:17;5.93;;;2.50;;
45466;SDS011;31212;49.734;8.490;2023-08-30T07:27:43;3.85;;;2.42;;
45466;SDS011;31212;49.734;8.490;2023-08-30T07:30:10;6.85;;;2.55;;
45466;SDS011;31212;49.734;8.490;2023-08-30T07:32:37;5.40;;;2.72;;
45466;SDS011;31212;49.734;8.490;2023-08-30T07:35:03;3.78;;;2.97;;
45466;SDS011;31212;49.734;8.490;2023-08-30T07:37:30;4.80;;;2.83;;
45466;SDS011;31212;49.734;8.490;2023-08-30T07:39:58;4.10;;;2.55;;
45466;SDS011;31212;49.734;8.490;2023-08-30T07:42:24;3.38;;;2.80;;
45466;SDS011;31212;49.734;8.490;2023-08-30T07:44:51;5.78;;;2.65;;
45466;SDS011;31212;49.734;8.490;2023-08-30T07:47:17;7.35;;;2.65;;
45466;SDS011;31212;49.734;8.490;2023-08-30T07:49:44;6.60;;;2.90;;
45466;SDS011;31212;49.734;8.490;2023-08-30T07:52:10;4.10;;;2.40;;
45466;SDS011;31212;49.734;8.490;2023-08-30T07:54:38;4.68;;;2.63;;
45466;SDS011;31212;49.734;8.490;2023-08-30T07:57:07;5.35;;;2.83;;
45466;SDS011;31212;49.734;8.490;2023-08-30T07:59:33;3.30;;;2.20;;
45466;SDS011;31212;49.734;8.490;2023-08-30T08:02:00;3.53;;;2.60;;
45466;SDS011;31212;49.734;8.490;2023-08-30T08:04:26;3.20;;;2.60;;
45466;SDS011;31212;49.734;8.490;2023-08-30T08:06:52;7.80;;;2.30;;
45466;SDS011;31212;49.734;8.490;2023-08-30T08:09:19;3.17;;;1.92;;
45466;SDS011;31212;49.734;8.490;2023-08-30T08:11:48;5.53;;;3.70;;
45466;SDS011;31212;49.734;8.490;2023-08-30T08:14:15;3.92;;;2.63;;
45466;SDS011;31212;49.734;8.490;2023-08-30T08:16:42;4.95;;;2.67;;
45466;SDS011;31212;49.734;8.490;2023-08-30T08:19:08;2.58;;;2.03;;
45466;SDS011;31212;49.734;8.490;2023-08-30T08:21:35;6.18;;;3.10;;
45466;SDS011;31212;49.734;8.490;2023-08-30T08:24:01;3.53;;;2.75;;
45466;SDS011;31212;49.734;8.490;2023-08-30T08:26:27;4.70;;;2.63;;
45466;SDS011;31212;49.734;8.490;2023-08-30T08:28:54;4.22;;;2.75;;
45466;SDS011;31212;49.734;8.490;2023-08-30T08:31:22;4.47;;;2.85;;
45466;SDS011;31212;49.734;8.490;2023-08-30T08:33:50;6.22;;;4.13;;
45466;SDS011;31212;49.734;8.490;2023-08-30T08:36:17;4.10;;;2.78;;
45466;SDS011;31212;49.734;8.490;2023-08-30T08:38:43;4.43;;;2.70;;
45466;SDS011;31212;49.734;8.490;2023-08-30T08:41:11;3.85;;;2.20;;
45466;SDS011;31212;49.734;8.490;2023-08-30T08:43:38;5.70;;;3.33;;
45466;SDS011;31212;49.734;8.490;2023-08-30T08:46:05;7.22;;;3.00;;
45466;SDS011;31212;49.734;8.490;2023-08-30T08:48:35;5.97;;;3.08;;
45466;SDS011;31212;49.734;8.490;2023-08-30T08:51:04;4.43;;;3.07;;
45466;SDS011;31212;49.734;8.490;2023-08-30T08:53:30;4.63;;;2.90;;
45466;SDS011;31212;49.734;8.490;2023-08-30T08:55:58;6.38;;;3.25;;
45466;SDS011;31212;49.734;8.490;2023-08-30T08:58:24;8.07;;;3.28;;
45466;SDS011;31212;49.734;8.490;2023-08-30T09:00:51;3.42;;;2.85;;
45466;SDS011;31212;49.734;8.490;2023-08-30T09:03:18;5.82;;;3.05;;
45466;SDS011;31212;49.734;8.490;2023-08-30T09:05:47;5.53;;;2.83;;
45466;SDS011;31212;49.734;8.490;2023-08-30T09:08:14;3.78;;;2.58;;
45466;SDS011;31212;49.734;8.490;2023-08-30T09:10:41;5.07;;;2.92;;
45466;SDS011;31212;49.734;8.490;2023-08-30T09:13:08;5.70;;;3.08;;
45466;SDS011;31212;49.734;8.490;2023-08-30T09:15:35;5.20;;;2.80;;
45466;SDS011;31212;49.734;8.490;2023-08-30T09:18:02;2.50;;;1.95;;
45466;SDS011;31212;49.734;8.490;2023-08-30T09:20:28;3.22;;;2.08;;
45466;SDS011;31212;49.734;8.490;2023-08-30T09:22:56;2.63;;;2.05;;
45466;SDS011;31212;49.734;8.490;2023-08-30T09:25:23;4.03;;;2.22;;
45466;SDS011;31212;49.734;8.490;2023-08-30T09:27:49;3.75;;;2.55;;
45466;SDS011;31212;49.734;8.490;2023-08-30T09:30:20;4.93;;;2.30;;
45466;SDS011;31212;49.734;8.490;2023-08-30T09:32:47;4.55;;;2.60;;
45466;SDS011;31212;49.734;8.490;2023-08-30T09:35:13;3.53;;;2.53;;
45466;SDS011;31212;49.734;8.490;2023-08-30T09:37:40;4.30;;;2.45;;
45466;SDS011;31212;49.734;8.490;2023-08-30T09:40:08;2.97;;;2.20;;
45466;SDS011;31212;49.734;8.490;2023-08-30T09:42:39;3.83;;;1.77;;
45466;SDS011;31212;49.734;8.490;2023-08-30T09:45:08;3.53;;;2.20;;
45466;SDS011;31212;49.734;8.490;2023-08-30T09:47:45;3.53;;;2.15;;
45466;SDS011;31212;49.734;8.490;2023-08-30T09:50:12;2.95;;;1.90;;
45466;SDS011;31212;49.734;8.490;2023-08-30T09:52:40;4.03;;;2.25;;
45466;SDS011;31212;49.734;8.490;2023-08-30T09:55:08;4.85;;;2.55;;
45466;SDS011;31212;49.734;8.490;2023-08-30T09:57:35;10.52;;;2.15;;
45466;SDS011;31212;49.734;8.490;2023-08-30T10:00:02;3.03;;;1.92;;
45466;SDS011;31212;49.734;8.490;2023-08-30T10:02:30;4.30;;;1.95;;
45466;SDS011;31212;49.734;8.490;2023-08-30T10:04:57;5.25;;;1.60;;
45466;SDS011;31212;49.734;8.490;2023-08-30T10:07:23;2.78;;;1.80;;
45466;SDS011;31212;49.734;8.490;2023-08-30T10:09:51;3.47;;;1.70;;
45466;SDS011;31212;49.734;8.490;2023-08-30T10:12:20;2.45;;;1.48;;
45466;SDS011;31212;49.734;8.490;2023-08-30T10:14:48;5.32;;;1.65;;
45466;SDS011;31212;49.734;8.490;2023-08-30T10:17:14;7.78;;;2.10;;
45466;SDS011;31212;49.734;8.490;2023-08-30T10:19:44;1.90;;;1.23;;
45466;SDS011;31212;49.734;8.490;2023-08-30T10:22:11;1.50;;;1.25;;
45466;SDS011;31212;49.734;8.490;2023-08-30T10:24:41;1.35;;;1.05;;
45466;SDS011;31212;49.734;8.490;2023-08-30T10:27:08;1.80;;;1.20;;
45466;SDS011;31212;49.734;8.490;2023-08-30T10:29:36;2.38;;;1.05;;
45466;SDS011;31212;49.734;8.490;2023-08-30T10:32:06;2.80;;;1.10;;
45466;SDS011;31212;49.734;8.490;2023-08-30T10:34:32;1.70;;;0.90;;
45466;SDS011;31212;49.734;8.490;2023-08-30T10:36:59;1.55;;;1.10;;
45466;SDS011;31212;49.734;8.490;2023-08-30T10:39:32;2.13;;;1.08;;
45466;SDS011;31212;49.734;8.490;2023-08-30T10:41:58;1.20;;;1.10;;
45466;SDS011;31212;49.734;8.490;2023-08-30T10:44:25;1.10;;;1.00;;
45466;SDS011;31212;49.734;8.490;2023-08-30T10:46:53;2.22;;;1.35;;
45466;SDS011;31212;49.734;8.490;2023-08-30T10:49:20;2.33;;;1.13;;
45466;SDS011;31212;49.734;8.490;2023-08-30T10:51:54;1.83;;;1.10;;
45466;SDS011;31212;49.734;8.490;2023-08-30T10:54:20;3.58;;;1.38;;
45466;SDS011;31212;49.734;8.490;2023-08-30T10:56:53;1.58;;;1.23;;
45466;SDS011;31212;49.734;8.490;2023-08-30T10:59:21;2.00;;;1.23;;
45466;SDS011;31212;49.734;8.490;2023-08-30T11:01:49;1.70;;;0.88;;
45466;SDS011;31212;49.734;8.490;2023-08-30T11:04:17;0.70;;;0.70;;
45466;SDS011;31212;49.734;8.490;2023-08-30T11:06:44;0.88;;;0.80;;
45466;SDS011;31212;49.734;8.490;2023-08-30T11:09:12;0.70;;;0.70;;
45466;SDS011;31212;49.734;8.490;2023-08-30T11:11:39;1.00;;;0.77;;
45466;SDS011;31212;49.734;8.490;2023-08-30T11:14:06;1.85;;;0.73;;
45466;SDS011;31212;49.734;8.490;2023-08-30T11:16:33;2.17;;;0.88;;
45466;SDS011;31212;49.734;8.490;2023-08-30T11:18:59;0.88;;;0.70;;
45466;SDS011;31212;49.734;8.490;2023-08-30T11:21:27;0.90;;;0.90;;
45466;SDS011;31212;49.734;8.490;2023-08-30T11:23:54;1.80;;;0.95;;
45466;SDS011;31212;49.734;8.490;2023-08-30T11:26:20;1.88;;;1.08;;
45466;SDS011;31212;49.734;8.490;2023-08-30T11:28:46;0.93;;;0.88;;
45466;SDS011;31212;49.734;8.490;2023-08-30T11:31:17;0.90;;;0.80;;
45466;SDS011;31212;49.734;8.490;2023-08-30T11:33:49;1.75;;;1.00;;
45466;SDS011;31212;49.734;8.490;2023-08-30T11:36:15;1.33;;;1.08;;
45466;SDS011;31212;49.734;8.490;2023-08-30T11:38:43;3.72;;;1.02;;
45466;SDS011;31212;49.734;8.490;2023-08-30T11:41:10;1.55;;;1.15;;
45466;SDS011;31212;49.734;8.490;2023-08-30T11:43:36;0.85;;;0.80;;
45466;SDS011;31212;49.734;8.490;2023-08-30T11:46:03;1.15;;;0.90;;
45466;SDS011;31212;49.734;8.490;2023-08-30T11:48:29;1.30;;;1.08;;
45466;SDS011;31212;49.734;8.490;2023-08-30T11:50:56;2.10;;;1.17;;
45466;SDS011;31212;49.734;8.490;2023-08-30T11:53:22;2.63;;;1.25;;
45466;SDS011;31212;49.734;8.490;2023-08-30T11:55:50;1.23;;;1.10;;
45466;SDS011;31212;49.734;8.490;2023-08-30T11:58:17;1.42;;;1.25;;
45466;SDS011;31212;49.734;8.490;2023-08-30T12:00:44;0.70;;;0.60;;
45466;SDS011;31212;49.734;8.490;2023-08-30T12:03:13;1.38;;;1.08;;
45466;SDS011;31212;49.734;8.490;2023-08-30T12:05:43;1.00;;;0.90;;
45466;SDS011;31212;49.734;8.490;2023-08-30T12:08:17;1.23;;;0.90;;
45466;SDS011;31212;49.734;8.490;2023-08-30T12:10:43;1.55;;;1.08;;
45466;SDS011;31212;49.734;8.490;2023-08-30T12:13:20;1.50;;;1.02;;
45466;SDS011;31212;49.734;8.490;2023-08-30T12:15:46;3.35;;;1.20;;
45466;SDS011;31212;49.734;8.490;2023-08-30T12:18:13;1.42;;;1.20;;
45466;SDS011;31212;49.734;8.490;2023-08-30T12:20:40;2.00;;;1.15;;
45466;SDS011;31212;49.734;8.490;2023-08-30T12:23:19;1.42;;;0.98;;
45466;SDS011;31212;49.734;8.490;2023-08-30T12:25:55;0.55;;;0.55;;
45466;SDS011;31212;49.734;8.490;2023-08-30T12:28:23;0.98;;;0.70;;
45466;SDS011;31212;49.734;8.490;2023-08-30T12:30:50;3.10;;;0.77;;
45466;SDS011;31212;49.734;8.490;2023-08-30T12:33:16;1.67;;;1.20;;
45466;SDS011;31212;49.734;8.490;2023-08-30T12:35:43;1.73;;;1.10;;
45466;SDS011;31212;49.734;8.490;2023-08-30T12:38:09;1.63;;;1.02;;
45466;SDS011;31212;49.734;8.490;2023-08-30T12:40:36;1.27;;;0.98;;
45466;SDS011;31212;49.734;8.490;2023-08-30T12:43:03;1.20;;;1.10;;
45466;SDS011;31212;49.734;8.490;2023-08-30T12:45:31;1.65;;;0.75;;
45466;SDS011;31212;49.734;8.490;2023-08-30T12:47:57;0.75;;;0.75;;
45466;SDS011;31212;49.734;8.490;2023-08-30T12:50:24;1.45;;;0.93;;
45466;SDS011;31212;49.734;8.490;2023-08-30T12:52:51;2.72;;;1.17;;
45466;SDS011;31212;49.734;8.490;2023-08-30T12:55:17;3.75;;;1.20;;
45466;SDS011;31212;49.734;8.490;2023-08-30T12:57:44;1.23;;;1.10;;
45466;SDS011;31212;49.734;8.490;2023-08-30T13:00:12;1.55;;;1.00;;
45466;SDS011;31212;49.734;8.490;2023-08-30T13:02:39;1.05;;;0.82;;
45466;SDS011;31212;49.734;8.490;2023-08-30T13:05:06;1.70;;;1.00;;
45466;SDS011;31212;49.734;8.490;2023-08-30T13:07:32;1.83;;;0.95;;
45466;SDS011;31212;49.734;8.490;2023-08-30T13:09:59;2.40;;;1.85;;
45466;SDS011;31212;49.734;8.490;2023-08-30T13:12:25;1.42;;;1.08;;
45466;SDS011;31212;49.734;8.490;2023-08-30T13:14:52;1.48;;;0.80;;
45466;SDS011;31212;49.734;8.490;2023-08-30T13:17:18;1.38;;;1.27;;
45466;SDS011;31212;49.734;8.490;2023-08-30T13:19:46;1.77;;;1.02;;
45466;SDS011;31212;49.734;8.490;2023-08-30T13:22:12;1.83;;;1.10;;
45466;SDS011;31212;49.734;8.490;2023-08-30T13:24:38;0.50;;;0.45;;
45466;SDS011;31212;49.734;8.490;2023-08-30T13:27:05;1.73;;;0.82;;
45466;SDS011;31212;49.734;8.490;2023-08-30T13:29:31;2.38;;;1.20;;
45466;SDS011;31212;49.734;8.490;2023-08-30T13:31:58;2.47;;;1.13;;
45466;SDS011;31212;49.734;8.490;2023-08-30T13:34:24;1.48;;;1.13;;
45466;SDS011;31212;49.734;8.490;2023-08-30T13:36:52;2.28;;;1.55;;
45466;SDS011;31212;49.734;8.490;2023-08-30T13:39:18;1.45;;;0.95;;
45466;SDS011;31212;49.734;8.490;2023-08-30T13:41:46;1.92;;;1.05;;
45466;SDS011;31212;49.734;8.490;2023-08-30T13:44:12;1.65;;;1.05;;
45466;SDS011;31212;49.734;8.490;2023-08-30T13:46:39;5.57;;;1.20;;
45466;SDS011;31212;49.734;8.490;2023-08-30T13:49:05;2.55;;;1.27;;
45466;SDS011;31212;49.734;8.490;2023-08-30T13:51:31;3.45;;;1.77;;
45466;SDS011;31212;49.734;8.490;2023-08-30T13:53:59;1.98;;;1.13;;
45466;SDS011;31212;49.734;8.490;2023-08-30T13:56:25;2.38;;;1.50;;
45466;SDS011;31212;49.734;8.490;2023-08-30T13:58:52;2.75;;;1.33;;
45466;SDS011;31212;49.734;8.490;2023-08-30T14:01:18;2.78;;;2.00;;
45466;SDS011;31212;49.734;8.490;2023-08-30T14:03:44;5.43;;;2.15;;
45466;SDS011;31212;49.734;8.490;2023-08-30T14:06:11;1.20;;;0.93;;
45466;SDS011;31212;49.734;8.490;2023-08-30T14:08:37;1.58;;;0.90;;
45466;SDS011;31212;49.734;8.490;2023-08-30T14:11:05;2.17;;;0.88;;
45466;SDS011;31212;49.734;8.490;2023-08-30T14:13:31;2.53;;;1.42;;
45466;SDS011;31212;49.734;8.490;2023-08-30T14:15:58;9.93;;;1.40;;
45466;SDS011;31212;49.734;8.490;2023-08-30T14:18:25;1.70;;;1.20;;
45466;SDS011;31212;49.734;8.490;2023-08-30T14:20:54;3.38;;;1.38;;
45466;SDS011;31212;49.734;8.490;2023-08-30T14:23:21;2.33;;;1.02;;
45466;SDS011;31212;49.734;8.490;2023-08-30T14:25:54;2.83;;;1.10;;
45466;SDS011;31212;49.734;8.490;2023-08-30T14:28:22;1.67;;;1.02;;
45466;SDS011;31212;49.734;8.490;2023-08-30T14:30:49;3.33;;;1.05;;
45466;SDS011;31212;49.734;8.490;2023-08-30T14:33:15;2.70;;;1.02;;
45466;SDS011;31212;49.734;8.490;2023-08-30T14:35:42;2.40;;;1.10;;
45466;SDS011;31212;49.734;8.490;2023-08-30T14:38:09;1.48;;;1.17;;
45466;SDS011;31212;49.734;8.490;2023-08-30T14:40:35;1.60;;;1.30;;
45466;SDS011;31212;49.734;8.490;2023-08-30T14:43:02;1.92;;;1.25;;
45466;SDS011;31212;49.734;8.490;2023-08-30T14:45:30;2.05;;;1.50;;
45466;SDS011;31212;49.734;8.490;2023-08-30T14:47:56;1.45;;;1.13;;
45466;SDS011;31212;49.734;8.490;2023-08-30T14:50:22;1.48;;;0.82;;
45466;SDS011;31212;49.734;8.490;2023-08-30T14:52:49;3.55;;;1.00;;
45466;SDS011;31212;49.734;8.490;2023-08-30T14:55:16;3.60;;;1.13;;
45466;SDS011;31212;49.734;8.490;2023-08-30T14:57:43;1.65;;;0.95;;
45466;SDS011;31212;49.734;8.490;2023-08-30T15:00:09;2.60;;;1.30;;
45466;SDS011;31212;49.734;8.490;2023-08-30T15:02:38;1.05;;;0.90;;
45466;SDS011;31212;49.734;8.490;2023-08-30T15:05:04;1.67;;;1.02;;
45466;SDS011;31212;49.734;8.490;2023-08-30T15:07:31;1.67;;;1.08;;
45466;SDS011;31212;49.734;8.490;2023-08-30T15:09:57;2.17;;;1.25;;
45466;SDS011;31212;49.734;8.490;2023-08-30T15:12:24;2.58;;;1.00;;
45466;SDS011;31212;49.734;8.490;2023-08-30T15:14:50;1.88;;;0.70;;
45466;SDS011;31212;49.734;8.490;2023-08-30T15:17:18;2.90;;;1.02;;
45466;SDS011;31212;49.734;8.490;2023-08-30T15:19:46;1.25;;;1.00;;
45466;SDS011;31212;49.734;8.490;2023-08-30T15:22:13;1.33;;;0.85;;
45466;SDS011;31212;49.734;8.490;2023-08-30T15:24:39;2.17;;;0.70;;
45466;SDS011;31212;49.734;8.490;2023-08-30T15:27:05;2.60;;;1.13;;
45466;SDS011;31212;49.734;8.490;2023-08-30T15:29:32;3.65;;;1.33;;
45466;SDS011;31212;49.734;8.490;2023-08-30T15:31:58;2.65;;;0.98;;
45466;SDS011;31212;49.734;8.490;2023-08-30T15:34:25;3.40;;;1.10;;
45466;SDS011;31212;49.734;8.490;2023-08-30T15:36:53;2.13;;;1.25;;
45466;SDS011;31212;49.734;8.490;2023-08-30T15:39:19;4.32;;;1.10;;
45466;SDS011;31212;49.734;8.490;2023-08-30T15:41:45;1.08;;;0.75;;
45466;SDS011;31212;49.734;8.490;2023-08-30T15:44:13;1.40;;;0.93;;
45466;SDS011;31212;49.734;8.490;2023-08-30T15:46:40;1.95;;;1.00;;
45466;SDS011;31212;49.734;8.490;2023-08-30T15:49:06;1.33;;;0.82;;
45466;SDS011;31212;49.734;8.490;2023-08-30T15:51:33;1.05;;;0.85;;
45466;SDS011;31212;49.734;8.490;2023-08-30T15:54:01;2.05;;;1.17;;
45466;SDS011;31212;49.734;8.490;2023-08-30T15:56:28;1.65;;;1.13;;
45466;SDS011;31212;49.734;8.490;2023-08-30T15:58:54;1.48;;;1.15;;
45466;SDS011;31212;49.734;8.490;2023-08-30T16:01:21;1.33;;;0.95;;
45466;SDS011;31212;49.734;8.490;2023-08-30T16:03:47;2.45;;;1.33;;
45466;SDS011;31212;49.734;8.490;2023-08-30T16:06:14;5.07;;;1.00;;
45466;SDS011;31212;49.734;8.490;2023-08-30T16:08:40;2.03;;;1.05;;
45466;SDS011;31212;49.734;8.490;2023-08-30T16:11:08;2.42;;;0.98;;
45466;SDS011;31212;49.734;8.490;2023-08-30T16:13:34;7.78;;;0.90;;
45466;SDS011;31212;49.734;8.490;2023-08-30T16:16:00;4.07;;;0.90;;
45466;SDS011;31212;49.734;8.490;2023-08-30T16:18:27;2.60;;;0.90;;
45466;SDS011;31212;49.734;8.490;2023-08-30T16:20:54;2.30;;;1.15;;
45466;SDS011;31212;49.734;8.490;2023-08-30T16:23:20;1.45;;;0.80;;
45466;SDS011;31212;49.734;8.490;2023-08-30T16:25:46;1.88;;;0.90;;
45466;SDS011;31212;49.734;8.490;2023-08-30T16:28:14;1.45;;;0.98;;
45466;SDS011;31212;49.734;8.490;2023-08-30T16:30:40;1.38;;;0.70;;
45466;SDS011;31212;49.734;8.490;2023-08-30T16:33:07;2.20;;;1.02;;
45466;SDS011;31212;49.734;8.490;2023-08-30T16:35:33;3.17;;;1.45;;
45466;SDS011;31212;49.734;8.490;2023-08-30T16:38:00;1.92;;;1.30;;
45466;SDS011;31212;49.734;8.490;2023-08-30T16:40:26;1.73;;;0.98;;
45466;SDS011;31212;49.734;8.490;2023-08-30T16:42:52;2.20;;;0.95;;
45466;SDS011;31212;49.734;8.490;2023-08-30T16:45:20;1.10;;;0.63;;
45466;SDS011;31212;49.734;8.490;2023-08-30T16:47:46;2.83;;;1.38;;
45466;SDS011;31212;49.734;8.490;2023-08-30T16:50:13;2.25;;;1.35;;
45466;SDS011;31212;49.734;8.490;2023-08-30T16:52:40;3.10;;;1.48;;
45466;SDS011;31212;49.734;8.490;2023-08-30T16:55:07;2.72;;;1.25;;
45466;SDS011;31212;49.734;8.490;2023-08-30T16:57:33;2.17;;;1.10;;
45466;SDS011;31212;49.734;8.490;2023-08-30T17:00:00;4.43;;;1.38;;
45466;SDS011;31212;49.734;8.490;2023-08-30T17:02:28;6.90;;;0.93;;
45466;SDS011;31212;49.734;8.490;2023-08-30T17:04:54;1.33;;;1.20;;
45466;SDS011;31212;49.734;8.490;2023-08-30T17:07:20;1.52;;;0.90;;
45466;SDS011;31212;49.734;8.490;2023-08-30T17:09:47;0.93;;;0.70;;
45466;SDS011;31212;49.734;8.490;2023-08-30T17:12:13;2.05;;;1.10;;
45466;SDS011;31212;49.734;8.490;2023-08-30T17:14:39;1.55;;;0.80;;
45466;SDS011;31212;49.734;8.490;2023-08-30T17:17:06;0.93;;;0.68;;
45466;SDS011;31212;49.734;8.490;2023-08-30T17:19:33;4.05;;;1.10;;
45466;SDS011;31212;49.734;8.490;2023-08-30T17:22:00;0.85;;;0.70;;
45466;SDS011;31212;49.734;8.490;2023-08-30T17:24:27;2.00;;;1.45;;
45466;SDS011;31212;49.734;8.490;2023-08-30T17:26:54;0.88;;;0.70;;
45466;SDS011;31212;49.734;8.490;2023-08-30T17:29:22;1.08;;;0.70;;
45466;SDS011;31212;49.734;8.490;2023-08-30T17:31:48;1.05;;;0.80;;
45466;SDS011;31212;49.734;8.490;2023-08-30T17:34:15;1.98;;;1.15;;
45466;SDS011;31212;49.734;8.490;2023-08-30T17:36:42;2.13;;;0.80;;
45466;SDS011;31212;49.734;8.490;2023-08-30T17:39:12;1.08;;;0.98;;
45466;SDS011;31212;49.734;8.490;2023-08-30T17:41:38;1.35;;;0.70;;
45466;SDS011;31212;49.734;8.490;2023-08-30T17:44:05;1.40;;;0.70;;
45466;SDS011;31212;49.734;8.490;2023-08-30T17:46:32;1.33;;;0.88;;
45466;SDS011;31212;49.734;8.490;2023-08-30T17:49:00;1.13;;;0.70;;
45466;SDS011;31212;49.734;8.490;2023-08-30T17:51:27;3.72;;;1.05;;
45466;SDS011;31212;49.734;8.490;2023-08-30T17:53:55;2.05;;;1.33;;
45466;SDS011;31212;49.734;8.490;2023-08-30T17:56:21;4.20;;;0.55;;
45466;SDS011;31212;49.734;8.490;2023-08-30T17:58:49;8.85;;;0.90;;
45466;SDS011;31212;49.734;8.490;2023-08-30T18:01:15;2.92;;;1.00;;
45466;SDS011;31212;49.734;8.490;2023-08-30T18:03:43;1.48;;;1.02;;
45466;SDS011;31212;49.734;8.490;2023-08-30T18:06:10;1.98;;;1.13;;
45466;SDS011;31212;49.734;8.490;2023-08-30T18:08:39;1.83;;;1.02;;
45466;SDS011;31212;49.734;8.490;2023-08-30T18:11:11;2.80;;;1.00;;
45466;SDS011;31212;49.734;8.490;2023-08-30T18:13:38;2.90;;;1.05;;
45466;SDS011;31212;49.734;8.490;2023-08-30T18:16:05;2.17;;;1.30;;
45466;SDS011;31212;49.734;8.490;2023-08-30T18:18:31;2.00;;;0.60;;
45466;SDS011;31212;49.734;8.490;2023-08-30T18:20:57;4.63;;;1.27;;
45466;SDS011;31212;49.734;8.490;2023-08-30T18:23:25;3.47;;;0.70;;
45466;SDS011;31212;49.734;8.490;2023-08-30T18:25:51;1.73;;;0.93;;
45466;SDS011;31212;49.734;8.490;2023-08-30T18:28:20;2.35;;;0.73;;
45466;SDS011;31212;49.734;8.490;2023-08-30T18:30:46;1.30;;;1.20;;
45466;SDS011;31212;49.734;8.490;2023-08-30T18:33:12;7.93;;;0.85;;
45466;SDS011;31212;49.734;8.490;2023-08-30T18:35:39;1.10;;;0.70;;
45466;SDS011;31212;49.734;8.490;2023-08-30T18:38:05;1.75;;;1.15;;
45466;SDS011;31212;49.734;8.490;2023-08-30T18:40:32;1.27;;;0.82;;
45466;SDS011;31212;49.734;8.490;2023-08-30T18:42:58;0.60;;;0.52;;
45466;SDS011;31212;49.734;8.490;2023-08-30T18:45:26;1.10;;;0.50;;
45466;SDS011;31212;49.734;8.490;2023-08-30T18:47:52;0.40;;;0.40;;
45466;SDS011;31212;49.734;8.490;2023-08-30T18:50:18;0.95;;;0.70;;
45466;SDS011;31212;49.734;8.490;2023-08-30T18:52:45;1.35;;;0.60;;
45466;SDS011;31212;49.734;8.490;2023-08-30T18:55:11;0.55;;;0.45;;
45466;SDS011;31212;49.734;8.490;2023-08-30T18:57:38;0.80;;;0.65;;
45466;SDS011;31212;49.734;8.490;2023-08-30T19:00:06;0.68;;;0.57;;
45466;SDS011;31212;49.734;8.490;2023-08-30T19:02:36;0.15;;;0.15;;
45466;SDS011;31212;49.734;8.490;2023-08-30T19:05:03;0.47;;;0.40;;
45466;SDS011;31212;49.734;8.490;2023-08-30T19:07:30;1.13;;;0.60;;
45466;SDS011;31212;49.734;8.490;2023-08-30T19:09:57;0.50;;;0.45;;
45466;SDS011;31212;49.734;8.490;2023-08-30T19:12:23;6.32;;;0.80;;
45466;SDS011;31212;49.734;8.490;2023-08-30T19:14:50;0.98;;;0.50;;
45466;SDS011;31212;49.734;8.490;2023-08-30T19:17:16;0.73;;;0.70;;
45466;SDS011;31212;49.734;8.490;2023-08-30T19:19:44;3.40;;;0.60;;
45466;SDS011;31212;49.734;8.490;2023-08-30T19:22:10;1.10;;;0.77;;
45466;SDS011;31212;49.734;8.490;2023-08-30T19:24:36;0.52;;;0.43;;
45466;SDS011;31212;49.734;8.490;2023-08-30T19:27:03;0.88;;;0.50;;
45466;SDS011;31212;49.734;8.490;2023-08-30T19:29:30;1.55;;;0.47;;
45466;SDS011;31212;49.734;8.490;2023-08-30T19:31:57;0.35;;;0.35;;
45466;SDS011;31212;49.734;8.490;2023-08-30T19:34:23;0.90;;;0.52;;
45466;SDS011;31212;49.734;8.490;2023-08-30T19:36:51;0.63;;;0.52;;
45466;SDS011;31212;49.734;8.490;2023-08-30T19:39:18;1.13;;;0.65;;
45466;SDS011;31212;49.734;8.490;2023-08-30T19:41:44;0.47;;;0.38;;
45466;SDS011;31212;49.734;8.490;2023-08-30T19:44:12;0.95;;;0.70;;
45466;SDS011;31212;49.734;8.490;2023-08-30T19:46:38;0.52;;;0.52;;
45466;SDS011;31212;49.734;8.490;2023-08-30T19:49:04;0.98;;;0.50;;
45466;SDS011;31212;49.734;8.490;2023-08-30T19:51:31;1.45;;;0.50;;
45466;SDS011;31212;49.734;8.490;2023-08-30T19:53:59;1.85;;;0.80;;
45466;SDS011;31212;49.734;8.490;2023-08-30T19:56:25;0.70;;;0.70;;
45466;SDS011;31212;49.734;8.490;2023-08-30T19:58:51;2.25;;;1.05;;
45466;SDS011;31212;49.734;8.490;2023-08-30T20:01:18;2.05;;;1.00;;